sensor_id;sensor_type;location;lat;lon;timestamp;temperature;humidity
5868;DHT22;2960;49.142;7.768;2024-03-08T00:02:16;7.20;59.70
5868;DHT22;2960;49.142;7.768;2024-03-08T00:04:45;7.20;59.20
5868;DHT22;2960;49.142;7.768;2024-03-08T00:07:12;7.20;59.10
5868;DHT22;2960;49.142;7.768;2024-03-08T00:09:40;7.20;59.20
5868;DHT22;2960;49.142;7.768;2024-03-08T00:12:07;7.20;59.20
5868;DHT22;2960;49.142;7.768;2024-03-08T00:14:36;7.20;59.20
5868;DHT22;2960;49.142;7.768;2024-03-08T00:17:04;7.30;59.30
5868;DHT22;2960;49.142;7.768;2024-03-08T00:19:31;7.30;59.20
5868;DHT22;2960;49.142;7.768;2024-03-08T00:21:58;7.30;59.20
5868;DHT22;2960;49.142;7.768;2024-03-08T00:24:26;7.30;59.20
5868;DHT22;2960;49.142;7.768;2024-03-08T00:26:54;7.30;59.20
5868;DHT22;2960;49.142;7.768;2024-03-08T00:29:21;7.30;59.30
5868;DHT22;2960;49.142;7.768;2024-03-08T00:31:50;7.30;59.20
5868;DHT22;2960;49.142;7.768;2024-03-08T00:34:17;7.30;59.20
5868;DHT22;2960;49.142;7.768;2024-03-08T00:36:44;7.30;59.20
5868;DHT22;2960;49.142;7.768;2024-03-08T00:39:11;7.30;59.20
5868;DHT22;2960;49.142;7.768;2024-03-08T00:41:38;7.30;59.20
5868;DHT22;2960;49.142;7.768;2024-03-08T00:44:06;7.30;59.20
5868;DHT22;2960;49.142;7.768;2024-03-08T00:46:33;7.30;59.20
5868;DHT22;2960;49.142;7.768;2024-03-08T00:49:01;7.30;59.20
5868;DHT22;2960;49.142;7.768;2024-03-08T00:51:29;7.30;59.20
5868;DHT22;2960;49.142;7.768;2024-03-08T00:53:56;7.30;59.20
5868;DHT22;2960;49.142;7.768;2024-03-08T00:56:23;7.20;59.20
5868;DHT22;2960;49.142;7.768;2024-03-08T00:58:50;7.20;59.20
5868;DHT22;2960;49.142;7.768;2024-03-08T01:01:19;7.20;59.30
5868;DHT22;2960;49.142;7.768;2024-03-08T01:03:46;7.20;59.30
5868;DHT22;2960;49.142;7.768;2024-03-08T01:06:15;7.20;59.30
5868;DHT22;2960;49.142;7.768;2024-03-08T01:08:42;7.20;59.20
5868;DHT22;2960;49.142;7.768;2024-03-08T01:11:09;7.20;59.30
5868;DHT22;2960;49.142;7.768;2024-03-08T01:13:36;7.20;59.30
5868;DHT22;2960;49.142;7.768;2024-03-08T01:16:04;7.20;59.40
5868;DHT22;2960;49.142;7.768;2024-03-08T01:18:32;7.20;60.00
5868;DHT22;2960;49.142;7.768;2024-03-08T01:21:02;7.20;59.40
5868;DHT22;2960;49.142;7.768;2024-03-08T01:23:31;7.10;59.40
5868;DHT22;2960;49.142;7.768;2024-03-08T01:25:58;7.10;59.40
5868;DHT22;2960;49.142;7.768;2024-03-08T01:28:26;7.10;59.40
5868;DHT22;2960;49.142;7.768;2024-03-08T01:30:53;7.20;59.50
5868;DHT22;2960;49.142;7.768;2024-03-08T01:33:22;7.10;59.50
5868;DHT22;2960;49.142;7.768;2024-03-08T01:35:51;7.10;59.60
5868;DHT22;2960;49.142;7.768;2024-03-08T01:38:18;7.10;60.20
5868;DHT22;2960;49.142;7.768;2024-03-08T01:40:48;7.10;59.60
5868;DHT22;2960;49.142;7.768;2024-03-08T01:43:19;7.20;59.70
5868;DHT22;2960;49.142;7.768;2024-03-08T01:45:47;7.10;59.60
5868;DHT22;2960;49.142;7.768;2024-03-08T01:48:15;7.00;59.60
5868;DHT22;2960;49.142;7.768;2024-03-08T01:50:44;7.00;59.60
5868;DHT22;2960;49.142;7.768;2024-03-08T01:53:12;7.00;59.70
5868;DHT22;2960;49.142;7.768;2024-03-08T01:55:41;6.90;59.60
5868;DHT22;2960;49.142;7.768;2024-03-08T01:58:10;6.90;59.60
5868;DHT22;2960;49.142;7.768;2024-03-08T02:00:42;6.90;59.60
5868;DHT22;2960;49.142;7.768;2024-03-08T02:03:11;6.90;59.60
5868;DHT22;2960;49.142;7.768;2024-03-08T02:05:40;7.00;59.70
5868;DHT22;2960;49.142;7.768;2024-03-08T02:08:09;6.90;59.60
5868;DHT22;2960;49.142;7.768;2024-03-08T02:10:39;6.90;59.60
5868;DHT22;2960;49.142;7.768;2024-03-08T02:13:08;6.80;59.60
5868;DHT22;2960;49.142;7.768;2024-03-08T02:15:55;6.80;59.60
5868;DHT22;2960;49.142;7.768;2024-03-08T02:18:25;6.80;59.60
5868;DHT22;2960;49.142;7.768;2024-03-08T02:20:54;6.70;59.60
5868;DHT22;2960;49.142;7.768;2024-03-08T02:23:22;6.70;59.70
5868;DHT22;2960;49.142;7.768;2024-03-08T02:25:51;6.70;59.70
5868;DHT22;2960;49.142;7.768;2024-03-08T02:28:19;6.70;59.70
5868;DHT22;2960;49.142;7.768;2024-03-08T02:30:47;6.70;59.70
5868;DHT22;2960;49.142;7.768;2024-03-08T02:33:15;6.70;59.70
5868;DHT22;2960;49.142;7.768;2024-03-08T02:35:43;6.80;59.80
5868;DHT22;2960;49.142;7.768;2024-03-08T02:38:13;6.70;59.70
5868;DHT22;2960;49.142;7.768;2024-03-08T02:40:41;6.60;59.60
5868;DHT22;2960;49.142;7.768;2024-03-08T02:43:09;6.60;59.60
5868;DHT22;2960;49.142;7.768;2024-03-08T02:45:36;6.60;59.60
5868;DHT22;2960;49.142;7.768;2024-03-08T02:48:05;6.60;59.70
5868;DHT22;2960;49.142;7.768;2024-03-08T02:50:33;6.60;59.70
5868;DHT22;2960;49.142;7.768;2024-03-08T02:53:00;6.60;59.70
5868;DHT22;2960;49.142;7.768;2024-03-08T02:55:29;6.50;59.70
5868;DHT22;2960;49.142;7.768;2024-03-08T02:57:56;6.50;60.20
5868;DHT22;2960;49.142;7.768;2024-03-08T03:00:24;6.50;59.60
5868;DHT22;2960;49.142;7.768;2024-03-08T03:02:52;6.50;60.20
5868;DHT22;2960;49.142;7.768;2024-03-08T03:05:20;6.50;59.60
5868;DHT22;2960;49.142;7.768;2024-03-08T03:07:47;6.50;59.70
5868;DHT22;2960;49.142;7.768;2024-03-08T03:10:16;6.50;59.70
5868;DHT22;2960;49.142;7.768;2024-03-08T03:12:45;6.40;59.70
5868;DHT22;2960;49.142;7.768;2024-03-08T03:15:14;6.50;59.80
5868;DHT22;2960;49.142;7.768;2024-03-08T03:17:45;6.40;59.70
5868;DHT22;2960;49.142;7.768;2024-03-08T03:20:14;6.40;59.70
5868;DHT22;2960;49.142;7.768;2024-03-08T03:22:48;6.40;59.70
5868;DHT22;2960;49.142;7.768;2024-03-08T03:25:18;6.40;59.80
5868;DHT22;2960;49.142;7.768;2024-03-08T03:27:52;6.30;59.70
5868;DHT22;2960;49.142;7.768;2024-03-08T03:30:22;6.30;59.80
5868;DHT22;2960;49.142;7.768;2024-03-08T03:32:52;6.30;59.80
5868;DHT22;2960;49.142;7.768;2024-03-08T03:35:20;6.30;59.90
5868;DHT22;2960;49.142;7.768;2024-03-08T03:37:48;6.30;60.50
5868;DHT22;2960;49.142;7.768;2024-03-08T03:40:27;6.30;59.80
5868;DHT22;2960;49.142;7.768;2024-03-08T03:42:56;6.30;59.80
5868;DHT22;2960;49.142;7.768;2024-03-08T03:45:23;6.30;59.80
5868;DHT22;2960;49.142;7.768;2024-03-08T03:47:50;6.30;59.70
5868;DHT22;2960;49.142;7.768;2024-03-08T03:50:18;6.20;59.70
5868;DHT22;2960;49.142;7.768;2024-03-08T03:52:45;6.20;59.70
5868;DHT22;2960;49.142;7.768;2024-03-08T03:55:13;6.20;59.70
5868;DHT22;2960;49.142;7.768;2024-03-08T03:57:40;6.20;59.80
5868;DHT22;2960;49.142;7.768;2024-03-08T04:00:10;6.20;59.80
5868;DHT22;2960;49.142;7.768;2024-03-08T04:02:37;6.20;59.80
5868;DHT22;2960;49.142;7.768;2024-03-08T04:05:08;6.20;59.80
5868;DHT22;2960;49.142;7.768;2024-03-08T04:07:37;6.10;59.70
5868;DHT22;2960;49.142;7.768;2024-03-08T04:10:06;6.10;59.70
5868;DHT22;2960;49.142;7.768;2024-03-08T04:12:34;6.10;59.80
5868;DHT22;2960;49.142;7.768;2024-03-08T04:15:01;6.10;59.80
5868;DHT22;2960;49.142;7.768;2024-03-08T04:17:30;6.10;59.70
5868;DHT22;2960;49.142;7.768;2024-03-08T04:19:57;6.10;59.70
5868;DHT22;2960;49.142;7.768;2024-03-08T04:22:24;6.10;60.40
5868;DHT22;2960;49.142;7.768;2024-03-08T04:24:54;6.10;59.80
5868;DHT22;2960;49.142;7.768;2024-03-08T04:27:21;6.10;59.70
5868;DHT22;2960;49.142;7.768;2024-03-08T04:29:48;6.10;60.40
5868;DHT22;2960;49.142;7.768;2024-03-08T04:32:15;6.00;60.30
5868;DHT22;2960;49.142;7.768;2024-03-08T04:34:44;6.00;59.70
5868;DHT22;2960;49.142;7.768;2024-03-08T04:37:11;6.00;59.70
5868;DHT22;2960;49.142;7.768;2024-03-08T04:39:39;6.00;59.70
5868;DHT22;2960;49.142;7.768;2024-03-08T04:42:07;6.00;59.70
5868;DHT22;2960;49.142;7.768;2024-03-08T04:44:36;5.90;59.70
5868;DHT22;2960;49.142;7.768;2024-03-08T04:47:05;5.90;59.70
5868;DHT22;2960;49.142;7.768;2024-03-08T04:49:32;5.90;59.80
5868;DHT22;2960;49.142;7.768;2024-03-08T04:52:03;5.90;59.80
5868;DHT22;2960;49.142;7.768;2024-03-08T04:54:30;5.90;59.80
5868;DHT22;2960;49.142;7.768;2024-03-08T04:56:57;5.80;59.70
5868;DHT22;2960;49.142;7.768;2024-03-08T04:59:26;5.80;59.80
5868;DHT22;2960;49.142;7.768;2024-03-08T05:01:53;5.80;59.70
5868;DHT22;2960;49.142;7.768;2024-03-08T05:04:22;5.80;59.80
5868;DHT22;2960;49.142;7.768;2024-03-08T05:06:49;5.80;59.80
5868;DHT22;2960;49.142;7.768;2024-03-08T05:09:17;5.80;59.80
5868;DHT22;2960;49.142;7.768;2024-03-08T05:11:45;5.70;59.80
5868;DHT22;2960;49.142;7.768;2024-03-08T05:14:14;5.70;59.80
5868;DHT22;2960;49.142;7.768;2024-03-08T05:16:42;5.70;59.80
5868;DHT22;2960;49.142;7.768;2024-03-08T05:19:13;5.70;59.70
5868;DHT22;2960;49.142;7.768;2024-03-08T05:21:43;5.70;59.80
5868;DHT22;2960;49.142;7.768;2024-03-08T05:24:10;5.70;59.80
5868;DHT22;2960;49.142;7.768;2024-03-08T05:26:40;5.60;59.70
5868;DHT22;2960;49.142;7.768;2024-03-08T05:29:10;5.60;59.70
5868;DHT22;2960;49.142;7.768;2024-03-08T05:31:45;5.60;59.70
5868;DHT22;2960;49.142;7.768;2024-03-08T05:34:13;5.50;59.70
5868;DHT22;2960;49.142;7.768;2024-03-08T05:36:41;5.50;59.70
5868;DHT22;2960;49.142;7.768;2024-03-08T05:39:10;5.50;59.70
5868;DHT22;2960;49.142;7.768;2024-03-08T05:41:37;5.50;59.70
5868;DHT22;2960;49.142;7.768;2024-03-08T05:44:06;5.40;59.70
5868;DHT22;2960;49.142;7.768;2024-03-08T05:46:33;5.40;60.40
5868;DHT22;2960;49.142;7.768;2024-03-08T05:49:01;5.30;59.70
5868;DHT22;2960;49.142;7.768;2024-03-08T05:51:31;5.30;59.70
5868;DHT22;2960;49.142;7.768;2024-03-08T05:54:00;5.30;59.80
5868;DHT22;2960;49.142;7.768;2024-03-08T05:56:28;5.30;59.80
5868;DHT22;2960;49.142;7.768;2024-03-08T05:58:55;5.20;59.80
5868;DHT22;2960;49.142;7.768;2024-03-08T06:01:24;5.20;59.80
5868;DHT22;2960;49.142;7.768;2024-03-08T06:03:52;5.20;59.80
5868;DHT22;2960;49.142;7.768;2024-03-08T06:06:21;5.20;59.80
5868;DHT22;2960;49.142;7.768;2024-03-08T06:08:48;5.20;59.80
5868;DHT22;2960;49.142;7.768;2024-03-08T06:11:16;5.20;59.80
5868;DHT22;2960;49.142;7.768;2024-03-08T06:13:44;5.20;59.80
5868;DHT22;2960;49.142;7.768;2024-03-08T06:16:11;5.30;59.80
5868;DHT22;2960;49.142;7.768;2024-03-08T06:18:39;5.30;59.70
5868;DHT22;2960;49.142;7.768;2024-03-08T06:21:07;5.30;59.70
5868;DHT22;2960;49.142;7.768;2024-03-08T06:23:37;5.30;59.70
5868;DHT22;2960;49.142;7.768;2024-03-08T06:26:04;5.30;59.70
5868;DHT22;2960;49.142;7.768;2024-03-08T06:28:32;5.30;60.40
5868;DHT22;2960;49.142;7.768;2024-03-08T06:31:00;5.30;59.70
5868;DHT22;2960;49.142;7.768;2024-03-08T06:33:28;5.30;59.70
5868;DHT22;2960;49.142;7.768;2024-03-08T06:35:57;5.30;59.70
5868;DHT22;2960;49.142;7.768;2024-03-08T06:38:24;5.40;60.40
5868;DHT22;2960;49.142;7.768;2024-03-08T06:40:51;5.40;59.70
5868;DHT22;2960;49.142;7.768;2024-03-08T06:43:20;5.40;59.70
5868;DHT22;2960;49.142;7.768;2024-03-08T06:45:47;5.50;59.70
5868;DHT22;2960;49.142;7.768;2024-03-08T06:48:15;5.50;59.70
5868;DHT22;2960;49.142;7.768;2024-03-08T06:50:43;5.60;59.70
5868;DHT22;2960;49.142;7.768;2024-03-08T06:53:12;5.60;59.70
5868;DHT22;2960;49.142;7.768;2024-03-08T06:55:39;5.70;59.70
5868;DHT22;2960;49.142;7.768;2024-03-08T06:58:06;5.80;59.70
5868;DHT22;2960;49.142;7.768;2024-03-08T07:00:33;5.80;59.60
5868;DHT22;2960;49.142;7.768;2024-03-08T07:03:01;5.90;59.60
5868;DHT22;2960;49.142;7.768;2024-03-08T07:05:29;6.00;59.60
5868;DHT22;2960;49.142;7.768;2024-03-08T07:07:58;6.00;59.50
5868;DHT22;2960;49.142;7.768;2024-03-08T07:10:26;6.10;59.50
5868;DHT22;2960;49.142;7.768;2024-03-08T07:12:55;6.20;59.50
5868;DHT22;2960;49.142;7.768;2024-03-08T07:15:22;6.20;59.50
5868;DHT22;2960;49.142;7.768;2024-03-08T07:17:49;6.30;59.40
5868;DHT22;2960;49.142;7.768;2024-03-08T07:20:18;6.40;59.40
5868;DHT22;2960;49.142;7.768;2024-03-08T07:22:45;6.50;59.40
5868;DHT22;2960;49.142;7.768;2024-03-08T07:25:16;6.60;59.40
5868;DHT22;2960;49.142;7.768;2024-03-08T07:27:48;6.70;59.40
5868;DHT22;2960;49.142;7.768;2024-03-08T07:30:15;6.80;59.30
5868;DHT22;2960;49.142;7.768;2024-03-08T07:33:04;6.80;59.00
5868;DHT22;2960;49.142;7.768;2024-03-08T07:35:32;6.90;59.10
5868;DHT22;2960;49.142;7.768;2024-03-08T07:38:03;6.90;59.00
5868;DHT22;2960;49.142;7.768;2024-03-08T07:40:31;7.00;59.10
5868;DHT22;2960;49.142;7.768;2024-03-08T07:43:00;7.10;59.00
5868;DHT22;2960;49.142;7.768;2024-03-08T07:45:27;7.10;58.90
5868;DHT22;2960;49.142;7.768;2024-03-08T07:47:56;7.20;59.00
5868;DHT22;2960;49.142;7.768;2024-03-08T07:50:23;7.30;58.80
5868;DHT22;2960;49.142;7.768;2024-03-08T07:52:50;7.30;58.80
5868;DHT22;2960;49.142;7.768;2024-03-08T07:55:17;7.40;58.80
5868;DHT22;2960;49.142;7.768;2024-03-08T07:57:45;7.50;58.60
5868;DHT22;2960;49.142;7.768;2024-03-08T08:00:15;7.50;58.30
5868;DHT22;2960;49.142;7.768;2024-03-08T08:02:44;7.60;58.50
5868;DHT22;2960;49.142;7.768;2024-03-08T08:05:12;7.70;58.40
5868;DHT22;2960;49.142;7.768;2024-03-08T08:07:39;7.90;58.30
5868;DHT22;2960;49.142;7.768;2024-03-08T08:10:09;7.90;58.30
5868;DHT22;2960;49.142;7.768;2024-03-08T08:12:42;8.00;58.20
5868;DHT22;2960;49.142;7.768;2024-03-08T08:15:09;8.00;57.90
5868;DHT22;2960;49.142;7.768;2024-03-08T08:17:38;8.10;58.00
5868;DHT22;2960;49.142;7.768;2024-03-08T08:20:06;8.20;58.00
5868;DHT22;2960;49.142;7.768;2024-03-08T08:22:34;8.30;57.80
5868;DHT22;2960;49.142;7.768;2024-03-08T08:25:04;8.30;57.70
5868;DHT22;2960;49.142;7.768;2024-03-08T08:27:31;8.40;57.70
5868;DHT22;2960;49.142;7.768;2024-03-08T08:29:59;8.50;57.40
5868;DHT22;2960;49.142;7.768;2024-03-08T08:32:26;8.50;57.20
5868;DHT22;2960;49.142;7.768;2024-03-08T08:34:55;8.50;56.90
5868;DHT22;2960;49.142;7.768;2024-03-08T08:37:24;8.50;56.90
5868;DHT22;2960;49.142;7.768;2024-03-08T08:39:51;8.50;56.70
5868;DHT22;2960;49.142;7.768;2024-03-08T08:42:18;8.50;56.80
5868;DHT22;2960;49.142;7.768;2024-03-08T08:44:45;8.50;56.80
5868;DHT22;2960;49.142;7.768;2024-03-08T08:47:15;8.50;56.80
5868;DHT22;2960;49.142;7.768;2024-03-08T08:49:44;8.60;56.70
5868;DHT22;2960;49.142;7.768;2024-03-08T08:52:13;8.60;56.80
5868;DHT22;2960;49.142;7.768;2024-03-08T08:54:42;8.70;56.80
5868;DHT22;2960;49.142;7.768;2024-03-08T08:57:10;8.70;56.70
5868;DHT22;2960;49.142;7.768;2024-03-08T08:59:37;8.80;56.80
5868;DHT22;2960;49.142;7.768;2024-03-08T09:02:06;8.90;56.70
5868;DHT22;2960;49.142;7.768;2024-03-08T09:04:34;8.90;56.60
5868;DHT22;2960;49.142;7.768;2024-03-08T09:07:02;9.00;56.70
5868;DHT22;2960;49.142;7.768;2024-03-08T09:09:33;9.10;56.60
5868;DHT22;2960;49.142;7.768;2024-03-08T09:12:00;9.20;56.60
5868;DHT22;2960;49.142;7.768;2024-03-08T09:14:27;9.20;56.40
5868;DHT22;2960;49.142;7.768;2024-03-08T09:16:55;9.30;56.40
5868;DHT22;2960;49.142;7.768;2024-03-08T09:19:22;9.40;56.40
5868;DHT22;2960;49.142;7.768;2024-03-08T09:21:51;9.40;56.20
5868;DHT22;2960;49.142;7.768;2024-03-08T09:24:19;9.40;56.70
5868;DHT22;2960;49.142;7.768;2024-03-08T09:26:47;9.50;56.10
5868;DHT22;2960;49.142;7.768;2024-03-08T09:29:14;9.50;56.10
5868;DHT22;2960;49.142;7.768;2024-03-08T09:31:41;9.50;56.70
5868;DHT22;2960;49.142;7.768;2024-03-08T09:34:08;9.50;56.00
5868;DHT22;2960;49.142;7.768;2024-03-08T09:36:35;9.60;56.20
5868;DHT22;2960;49.142;7.768;2024-03-08T09:39:03;9.70;55.90
5868;DHT22;2960;49.142;7.768;2024-03-08T09:41:33;9.80;55.90
5868;DHT22;2960;49.142;7.768;2024-03-08T09:44:02;9.90;55.70
5868;DHT22;2960;49.142;7.768;2024-03-08T09:46:30;9.90;55.50
5868;DHT22;2960;49.142;7.768;2024-03-08T09:48:58;10.00;54.60
5868;DHT22;2960;49.142;7.768;2024-03-08T09:51:28;10.10;54.10
5868;DHT22;2960;49.142;7.768;2024-03-08T09:53:56;10.10;54.00
5868;DHT22;2960;49.142;7.768;2024-03-08T09:56:25;10.10;54.00
5868;DHT22;2960;49.142;7.768;2024-03-08T09:58:54;10.20;54.10
5868;DHT22;2960;49.142;7.768;2024-03-08T10:01:45;10.10;53.70
5868;DHT22;2960;49.142;7.768;2024-03-08T10:04:12;10.10;53.90
5868;DHT22;2960;49.142;7.768;2024-03-08T10:06:40;10.20;54.10
5868;DHT22;2960;49.142;7.768;2024-03-08T10:09:07;10.20;53.50
5868;DHT22;2960;49.142;7.768;2024-03-08T10:11:35;10.10;53.30
5868;DHT22;2960;49.142;7.768;2024-03-08T10:14:05;10.10;53.20
5868;DHT22;2960;49.142;7.768;2024-03-08T10:16:32;10.00;53.40
5868;DHT22;2960;49.142;7.768;2024-03-08T10:19:02;10.00;53.40
5868;DHT22;2960;49.142;7.768;2024-03-08T10:21:32;10.00;53.60
5868;DHT22;2960;49.142;7.768;2024-03-08T10:23:59;10.10;53.60
5868;DHT22;2960;49.142;7.768;2024-03-08T10:26:26;10.10;53.30
5868;DHT22;2960;49.142;7.768;2024-03-08T10:28:53;10.10;53.30
5868;DHT22;2960;49.142;7.768;2024-03-08T10:31:21;10.10;53.40
5868;DHT22;2960;49.142;7.768;2024-03-08T10:33:48;10.10;54.00
5868;DHT22;2960;49.142;7.768;2024-03-08T10:36:17;10.00;52.90
5868;DHT22;2960;49.142;7.768;2024-03-08T10:38:44;10.00;52.90
5868;DHT22;2960;49.142;7.768;2024-03-08T10:41:13;9.80;53.80
5868;DHT22;2960;49.142;7.768;2024-03-08T10:43:56;9.70;53.90
5868;DHT22;2960;49.142;7.768;2024-03-08T10:46:45;9.60;54.10
5868;DHT22;2960;49.142;7.768;2024-03-08T10:49:29;9.50;54.20
5868;DHT22;2960;49.142;7.768;2024-03-08T10:52:03;9.40;54.30
5868;DHT22;2960;49.142;7.768;2024-03-08T10:54:34;9.40;54.40
5868;DHT22;2960;49.142;7.768;2024-03-08T10:57:05;9.30;54.50
5868;DHT22;2960;49.142;7.768;2024-03-08T10:59:34;9.40;54.60
5868;DHT22;2960;49.142;7.768;2024-03-08T11:02:02;9.40;54.70
5868;DHT22;2960;49.142;7.768;2024-03-08T11:04:31;9.40;54.70
5868;DHT22;2960;49.142;7.768;2024-03-08T11:07:02;9.40;54.50
5868;DHT22;2960;49.142;7.768;2024-03-08T11:09:33;9.40;54.60
5868;DHT22;2960;49.142;7.768;2024-03-08T11:12:25;9.40;54.70
5868;DHT22;2960;49.142;7.768;2024-03-08T11:14:55;9.50;55.10
5868;DHT22;2960;49.142;7.768;2024-03-08T11:17:40;9.40;54.60
5868;DHT22;2960;49.142;7.768;2024-03-08T11:20:11;9.40;54.60
5868;DHT22;2960;49.142;7.768;2024-03-08T11:22:52;9.40;54.70
5868;DHT22;2960;49.142;7.768;2024-03-08T11:25:36;9.40;54.80
5868;DHT22;2960;49.142;7.768;2024-03-08T11:28:12;9.40;54.80
5868;DHT22;2960;49.142;7.768;2024-03-08T11:30:43;9.40;55.50
5868;DHT22;2960;49.142;7.768;2024-03-08T11:33:12;9.40;55.00
5868;DHT22;2960;49.142;7.768;2024-03-08T11:35:40;9.40;54.90
5868;DHT22;2960;49.142;7.768;2024-03-08T11:38:12;9.40;55.30
5868;DHT22;2960;49.142;7.768;2024-03-08T11:40:46;9.40;54.70
5868;DHT22;2960;49.142;7.768;2024-03-08T11:43:22;9.40;54.70
5868;DHT22;2960;49.142;7.768;2024-03-08T11:46:07;9.40;54.80
5868;DHT22;2960;49.142;7.768;2024-03-08T11:48:35;9.50;54.90
5868;DHT22;2960;49.142;7.768;2024-03-08T11:51:02;9.50;54.90
5868;DHT22;2960;49.142;7.768;2024-03-08T11:53:31;9.50;54.80
5868;DHT22;2960;49.142;7.768;2024-03-08T11:56:06;9.50;54.80
5868;DHT22;2960;49.142;7.768;2024-03-08T11:58:34;9.60;55.00
5868;DHT22;2960;49.142;7.768;2024-03-08T12:01:03;9.70;55.10
5868;DHT22;2960;49.142;7.768;2024-03-08T12:03:32;9.90;55.00
5868;DHT22;2960;49.142;7.768;2024-03-08T12:06:00;10.10;53.90
5868;DHT22;2960;49.142;7.768;2024-03-08T12:08:31;10.30;53.80
5868;DHT22;2960;49.142;7.768;2024-03-08T12:10:58;10.40;53.70
5868;DHT22;2960;49.142;7.768;2024-03-08T12:13:26;10.60;53.70
5868;DHT22;2960;49.142;7.768;2024-03-08T12:15:56;10.80;53.80
5868;DHT22;2960;49.142;7.768;2024-03-08T12:18:25;11.10;54.40
5868;DHT22;2960;49.142;7.768;2024-03-08T12:21:04;11.30;53.60
5868;DHT22;2960;49.142;7.768;2024-03-08T12:23:35;11.50;53.30
5868;DHT22;2960;49.142;7.768;2024-03-08T12:26:10;11.50;52.50
5868;DHT22;2960;49.142;7.768;2024-03-08T12:28:39;11.60;52.60
5868;DHT22;2960;49.142;7.768;2024-03-08T12:31:07;11.70;52.60
5868;DHT22;2960;49.142;7.768;2024-03-08T12:33:53;11.70;52.20
5868;DHT22;2960;49.142;7.768;2024-03-08T12:36:25;11.80;51.90
5868;DHT22;2960;49.142;7.768;2024-03-08T12:38:55;11.80;51.40
5868;DHT22;2960;49.142;7.768;2024-03-08T12:41:22;11.80;51.20
5868;DHT22;2960;49.142;7.768;2024-03-08T12:43:50;11.90;51.30
5868;DHT22;2960;49.142;7.768;2024-03-08T12:46:18;11.90;51.30
5868;DHT22;2960;49.142;7.768;2024-03-08T12:48:46;12.00;51.50
5868;DHT22;2960;49.142;7.768;2024-03-08T12:51:14;12.10;51.70
5868;DHT22;2960;49.142;7.768;2024-03-08T12:53:42;12.30;51.80
5868;DHT22;2960;49.142;7.768;2024-03-08T12:56:11;12.40;51.60
5868;DHT22;2960;49.142;7.768;2024-03-08T12:58:38;12.50;51.60
5868;DHT22;2960;49.142;7.768;2024-03-08T13:01:06;12.70;51.50
5868;DHT22;2960;49.142;7.768;2024-03-08T13:03:34;12.80;51.50
5868;DHT22;2960;49.142;7.768;2024-03-08T13:06:02;13.00;51.50
5868;DHT22;2960;49.142;7.768;2024-03-08T13:08:31;13.10;51.40
5868;DHT22;2960;49.142;7.768;2024-03-08T13:11:01;13.30;51.20
5868;DHT22;2960;49.142;7.768;2024-03-08T13:13:30;13.40;50.90
5868;DHT22;2960;49.142;7.768;2024-03-08T13:16:01;13.40;50.70
5868;DHT22;2960;49.142;7.768;2024-03-08T13:18:28;13.50;50.80
5868;DHT22;2960;49.142;7.768;2024-03-08T13:20:55;13.60;50.50
5868;DHT22;2960;49.142;7.768;2024-03-08T13:23:23;13.60;50.30
5868;DHT22;2960;49.142;7.768;2024-03-08T13:25:50;13.60;50.30
5868;DHT22;2960;49.142;7.768;2024-03-08T13:28:17;13.70;50.40
5868;DHT22;2960;49.142;7.768;2024-03-08T13:30:50;13.70;50.20
5868;DHT22;2960;49.142;7.768;2024-03-08T13:33:17;13.80;50.00
5868;DHT22;2960;49.142;7.768;2024-03-08T13:35:44;13.80;49.80
5868;DHT22;2960;49.142;7.768;2024-03-08T13:38:12;13.80;49.80
5868;DHT22;2960;49.142;7.768;2024-03-08T13:40:40;13.80;49.70
5868;DHT22;2960;49.142;7.768;2024-03-08T13:43:07;13.80;50.10
5868;DHT22;2960;49.142;7.768;2024-03-08T13:45:35;13.80;49.50
5868;DHT22;2960;49.142;7.768;2024-03-08T13:48:05;13.80;49.60
5868;DHT22;2960;49.142;7.768;2024-03-08T13:50:36;13.80;49.50
5868;DHT22;2960;49.142;7.768;2024-03-08T13:53:04;13.80;49.50
5868;DHT22;2960;49.142;7.768;2024-03-08T13:55:31;13.90;49.50
5868;DHT22;2960;49.142;7.768;2024-03-08T13:57:59;13.90;49.40
5868;DHT22;2960;49.142;7.768;2024-03-08T14:00:26;13.90;49.40
5868;DHT22;2960;49.142;7.768;2024-03-08T14:02:58;13.90;49.50
5868;DHT22;2960;49.142;7.768;2024-03-08T14:05:27;13.90;49.40
5868;DHT22;2960;49.142;7.768;2024-03-08T14:07:58;14.00;49.50
5868;DHT22;2960;49.142;7.768;2024-03-08T14:10:26;14.00;49.40
5868;DHT22;2960;49.142;7.768;2024-03-08T14:12:53;14.00;49.40
5868;DHT22;2960;49.142;7.768;2024-03-08T14:15:21;14.00;49.20
5868;DHT22;2960;49.142;7.768;2024-03-08T14:17:52;14.00;49.00
5868;DHT22;2960;49.142;7.768;2024-03-08T14:20:20;14.00;48.50
5868;DHT22;2960;49.142;7.768;2024-03-08T14:22:52;13.90;48.00
5868;DHT22;2960;49.142;7.768;2024-03-08T14:25:20;13.80;48.20
5868;DHT22;2960;49.142;7.768;2024-03-08T14:27:49;13.70;49.10
5868;DHT22;2960;49.142;7.768;2024-03-08T14:30:19;13.70;48.60
5868;DHT22;2960;49.142;7.768;2024-03-08T14:33:00;13.70;48.70
5868;DHT22;2960;49.142;7.768;2024-03-08T14:35:27;13.60;48.30
5868;DHT22;2960;49.142;7.768;2024-03-08T14:37:57;13.50;47.90
5868;DHT22;2960;49.142;7.768;2024-03-08T14:40:24;13.40;47.90
5868;DHT22;2960;49.142;7.768;2024-03-08T14:42:51;13.30;47.80
5868;DHT22;2960;49.142;7.768;2024-03-08T14:45:19;13.20;48.10
5868;DHT22;2960;49.142;7.768;2024-03-08T14:47:46;13.10;48.00
5868;DHT22;2960;49.142;7.768;2024-03-08T14:50:16;13.00;48.20
5868;DHT22;2960;49.142;7.768;2024-03-08T14:52:44;13.00;48.40
5868;DHT22;2960;49.142;7.768;2024-03-08T14:55:13;13.00;48.60
5868;DHT22;2960;49.142;7.768;2024-03-08T14:57:40;13.00;48.70
5868;DHT22;2960;49.142;7.768;2024-03-08T15:00:12;12.90;48.70
5868;DHT22;2960;49.142;7.768;2024-03-08T15:02:43;12.90;48.80
5868;DHT22;2960;49.142;7.768;2024-03-08T15:05:10;12.90;48.80
5868;DHT22;2960;49.142;7.768;2024-03-08T15:07:38;12.90;48.90
5868;DHT22;2960;49.142;7.768;2024-03-08T15:10:07;12.80;49.50
5868;DHT22;2960;49.142;7.768;2024-03-08T15:12:41;12.80;49.10
5868;DHT22;2960;49.142;7.768;2024-03-08T15:15:12;12.70;49.10
5868;DHT22;2960;49.142;7.768;2024-03-08T15:17:43;12.70;49.20
5868;DHT22;2960;49.142;7.768;2024-03-08T15:20:12;12.60;49.20
5868;DHT22;2960;49.142;7.768;2024-03-08T15:22:42;12.60;49.30
5868;DHT22;2960;49.142;7.768;2024-03-08T15:25:10;12.60;49.30
5868;DHT22;2960;49.142;7.768;2024-03-08T15:27:47;12.50;49.30
5868;DHT22;2960;49.142;7.768;2024-03-08T15:30:15;12.50;49.40
5868;DHT22;2960;49.142;7.768;2024-03-08T15:32:44;12.40;49.40
5868;DHT22;2960;49.142;7.768;2024-03-08T15:35:13;12.40;49.60
5868;DHT22;2960;49.142;7.768;2024-03-08T15:37:42;12.40;49.60
5868;DHT22;2960;49.142;7.768;2024-03-08T15:40:11;12.30;49.60
5868;DHT22;2960;49.142;7.768;2024-03-08T15:42:55;12.30;49.70
5868;DHT22;2960;49.142;7.768;2024-03-08T15:45:22;12.20;49.70
5868;DHT22;2960;49.142;7.768;2024-03-08T15:47:52;12.20;49.80
5868;DHT22;2960;49.142;7.768;2024-03-08T15:50:19;12.20;49.90
5868;DHT22;2960;49.142;7.768;2024-03-08T15:52:49;12.20;49.90
5868;DHT22;2960;49.142;7.768;2024-03-08T15:55:18;12.10;50.50
5868;DHT22;2960;49.142;7.768;2024-03-08T15:57:50;12.10;49.80
5868;DHT22;2960;49.142;7.768;2024-03-08T16:00:19;12.00;49.80
5868;DHT22;2960;49.142;7.768;2024-03-08T16:02:59;11.90;49.80
5868;DHT22;2960;49.142;7.768;2024-03-08T16:05:28;11.80;50.50
5868;DHT22;2960;49.142;7.768;2024-03-08T16:07:55;11.70;50.10
5868;DHT22;2960;49.142;7.768;2024-03-08T16:10:25;11.70;50.20
5868;DHT22;2960;49.142;7.768;2024-03-08T16:12:56;11.70;50.30
5868;DHT22;2960;49.142;7.768;2024-03-08T16:15:24;11.60;50.20
5868;DHT22;2960;49.142;7.768;2024-03-08T16:17:51;11.60;50.30
5868;DHT22;2960;49.142;7.768;2024-03-08T16:20:18;11.60;50.40
5868;DHT22;2960;49.142;7.768;2024-03-08T16:22:47;11.50;50.40
5868;DHT22;2960;49.142;7.768;2024-03-08T16:25:17;11.50;51.10